Time;durP1;ratioP1;P1;durP2;ratioP2;P2;SDS_P1;SDS_P2;PMS_P1;PMS_P2;Temp;Humidity;BMP_temperature;BMP_pressure;BME280_temperature;BME280_humidity;BME280_pressure;Samples;Min_cycle;Max_cycle;Signal;HPM_P1;HPM_P2
2021/05/17 00:00:37;;;;;;;1.08;0.73;;;10.20;94.80;;;;;;5964847;24;20539;-90
2021/05/17 00:03:05;;;;;;;0.82;0.82;;;10.20;95.00;;;;;;5938758;24;20289;-89
2021/05/17 00:05:32;;;;;;;0.60;0.60;;;10.20;95.00;;;;;;5965217;24;20204;-88
2021/05/17 00:07:59;;;;;;;1.73;0.60;;;10.10;94.60;;;;;;5963809;24;20554;-89
2021/05/17 00:10:27;;;;;;;1.05;0.90;;;10.10;94.30;;;;;;5939168;24;20180;-89
2021/05/17 00:12:53;;;;;;;0.65;0.60;;;10.00;94.60;;;;;;5964379;24;20208;-89
2021/05/17 00:15:21;;;;;;;1.10;0.90;;;10.00;94.10;;;;;;5963532;24;20207;-89
2021/05/17 00:17:49;;;;;;;0.77;0.77;;;10.00;94.30;;;;;;5962235;24;20414;-89
2021/05/17 00:20:16;;;;;;;0.80;0.75;;;10.10;94.40;;;;;;5962655;24;20274;-89
2021/05/17 00:22:44;;;;;;;2.15;0.70;;;10.10;94.20;;;;;;5963094;24;20279;-89
2021/05/17 00:25:12;;;;;;;0.77;0.73;;;10.10;94.00;;;;;;5963687;24;20204;-89
2021/05/17 00:27:39;;;;;;;0.60;0.60;;;10.10;94.30;;;;;;5963891;24;20218;-89
2021/05/17 00:30:07;;;;;;;0.68;0.68;;;10.10;94.10;;;;;;5962679;24;20183;-88
2021/05/17 00:32:33;;;;;;;0.70;0.60;;;10.10;94.00;;;;;;5960891;24;20252;-89
2021/05/17 00:35:01;;;;;;;1.48;0.68;;;10.00;93.90;;;;;;5960808;24;20199;-90
2021/05/17 00:37:27;;;;;;;0.70;0.70;;;10.00;94.10;;;;;;5961008;24;20216;-89
2021/05/17 00:39:54;;;;;;;0.70;0.70;;;9.90;94.90;;;;;;5961782;24;20480;-89
2021/05/17 00:42:21;;;;;;;1.17;0.90;;;9.90;95.60;;;;;;5961539;24;20211;-89
2021/05/17 00:44:47;;;;;;;0.60;0.60;;;9.80;95.90;;;;;;5961625;24;20208;-89
2021/05/17 00:47:16;;;;;;;0.90;0.90;;;9.80;96.40;;;;;;5960399;24;20207;-88
2021/05/17 00:49:45;;;;;;;0.68;0.68;;;9.70;96.00;;;;;;5961925;24;20230;-89
2021/05/17 00:52:17;;;;;;;0.90;0.90;;;9.70;96.10;;;;;;5958749;24;20663;-89
2021/05/17 00:54:44;;;;;;;0.60;0.60;;;9.60;96.90;;;;;;5961259;24;20176;-90
2021/05/17 00:57:11;;;;;;;1.13;0.90;;;9.60;96.60;;;;;;5960648;24;20282;-90
2021/05/17 00:59:38;;;;;;;0.50;0.50;;;9.60;96.80;;;;;;5962255;24;20276;-89
2021/05/17 01:02:05;;;;;;;0.90;0.90;;;9.60;97.10;;;;;;5960579;24;20206;-90
2021/05/17 01:04:32;;;;;;;1.00;0.80;;;9.70;96.80;;;;;;5960751;24;20210;-89
2021/05/17 01:06:59;;;;;;;0.65;0.65;;;9.70;96.10;;;;;;5960502;24;20214;-89
2021/05/17 01:09:28;;;;;;;1.45;0.90;;;9.80;96.10;;;;;;5962185;24;20215;-90
2021/05/17 01:11:57;;;;;;;0.60;0.60;;;9.90;96.40;;;;;;5961694;24;20287;-91
2021/05/17 01:14:24;;;;;;;1.00;1.00;;;9.90;95.50;;;;;;5960299;24;20202;-89
2021/05/17 01:16:53;;;;;;;1.17;1.08;;;9.80;95.50;;;;;;5959559;24;20263;-89
2021/05/17 01:19:33;;;;;;;1.00;0.90;;;9.80;95.60;;;;;;5959500;24;20215;-89
2021/05/17 01:22:09;;;;;;;1.33;0.88;;;9.70;96.00;;;;;;5959475;24;20212;-89
2021/05/17 01:24:38;;;;;;;1.30;0.90;;;9.70;96.00;;;;;;5961763;24;20195;-89
2021/05/17 01:27:06;;;;;;;1.80;0.95;;;9.70;96.00;;;;;;5961203;24;20210;-89
2021/05/17 01:29:33;;;;;;;1.13;0.77;;;9.70;96.00;;;;;;5962363;24;20182;-89
2021/05/17 01:32:00;;;;;;;1.38;0.95;;;9.70;96.00;;;;;;5960013;24;20207;-90
2021/05/17 01:34:27;;;;;;;0.98;0.88;;;9.80;95.90;;;;;;5960930;24;20878;-89
2021/05/17 01:36:54;;;;;;;1.55;0.93;;;9.80;95.30;;;;;;5960683;24;20200;-88
2021/05/17 01:39:25;;;;;;;2.05;0.80;;;9.90;95.30;;;;;;5961641;24;20176;-89
2021/05/17 01:41:53;;;;;;;2.97;1.02;;;9.80;95.10;;;;;;5961643;24;20208;-89
2021/05/17 01:44:23;;;;;;;1.48;0.85;;;9.80;95.30;;;;;;5963234;24;20291;-88
2021/05/17 01:46:52;;;;;;;4.07;1.10;;;9.90;95.10;;;;;;5961176;24;20543;-89
2021/05/17 01:49:21;;;;;;;1.27;0.80;;;9.90;95.20;;;;;;5962887;24;20204;-89
2021/05/17 01:51:49;;;;;;;0.80;0.80;;;9.80;95.20;;;;;;5962058;24;20215;-90
2021/05/17 01:54:16;;;;;;;1.95;0.98;;;9.90;95.10;;;;;;5963006;24;20184;-89
2021/05/17 01:56:43;;;;;;;1.88;1.13;;;9.90;94.90;;;;;;5963169;24;20190;-89
2021/05/17 01:59:11;;;;;;;1.27;0.93;;;10.00;94.10;;;;;;5963152;24;20212;-89
2021/05/17 02:01:38;;;;;;;2.72;1.30;;;10.00;94.20;;;;;;5962679;24;20720;-89
2021/05/17 02:04:05;;;;;;;1.08;0.77;;;10.00;93.50;;;;;;5963305;24;20176;-89
2021/05/17 02:06:32;;;;;;;3.33;1.13;;;10.10;93.50;;;;;;5963194;24;20567;-89
2021/05/17 02:08:59;;;;;;;1.15;0.98;;;10.10;93.40;;;;;;5962787;24;20186;-90
2021/05/17 02:11:26;;;;;;;1.30;0.80;;;10.10;93.90;;;;;;5963562;24;20176;-89
2021/05/17 02:13:54;;;;;;;2.05;1.10;;;10.10;93.30;;;;;;5962215;24;20202;-88
2021/05/17 02:16:22;;;;;;;2.53;0.90;;;10.10;93.70;;;;;;5964464;24;20181;-89
2021/05/17 02:18:49;;;;;;;1.95;0.90;;;10.10;93.60;;;;;;5963922;24;20219;-89
2021/05/17 02:21:17;;;;;;;1.63;1.00;;;10.20;93.50;;;;;;5965015;24;20183;-89
2021/05/17 02:23:44;;;;;;;1.30;0.93;;;10.20;93.30;;;;;;5964751;24;20211;-89
2021/05/17 02:26:11;;;;;;;0.75;0.70;;;10.20;93.30;;;;;;5965629;24;20287;-89
2021/05/17 02:28:39;;;;;;;2.65;0.80;;;10.20;93.20;;;;;;5964968;24;20221;-89
2021/05/17 02:31:07;;;;;;;1.08;0.90;;;10.20;93.30;;;;;;5964412;24;20190;-89
2021/05/17 02:33:36;;;;;;;2.30;0.93;;;10.10;94.00;;;;;;5964298;24;20291;-90
2021/05/17 02:36:05;;;;;;;1.17;1.00;;;10.20;93.90;;;;;;5962833;24;20190;-89
2021/05/17 02:38:32;;;;;;;1.42;0.80;;;10.20;93.40;;;;;;5962745;24;20203;-90
2021/05/17 02:40:58;;;;;;;1.38;1.02;;;10.20;93.60;;;;;;5964000;24;20222;-89
2021/05/17 02:43:28;;;;;;;1.05;0.88;;;10.20;93.60;;;;;;5962068;24;20570;-89
2021/05/17 02:45:55;;;;;;;1.10;0.80;;;10.20;93.80;;;;;;5964710;24;20210;-89
2021/05/17 02:48:28;;;;;;;2.75;0.90;;;10.20;93.10;;;;;;5964208;24;20222;-89
2021/05/17 02:50:56;;;;;;;0.85;0.82;;;10.30;92.80;;;;;;5962877;24;20172;-89
2021/05/17 02:53:41;;;;;;;1.17;0.90;;;10.30;92.40;;;;;;5962557;24;20208;-89
2021/05/17 02:56:09;;;;;;;1.42;0.80;;;10.20;92.30;;;;;;5938747;24;20191;-89
2021/05/17 02:58:37;;;;;;;2.10;0.73;;;10.20;92.30;;;;;;5938823;24;20232;-90
2021/05/17 03:01:07;;;;;;;1.75;0.80;;;10.20;91.80;;;;;;5962386;24;20188;-91
2021/05/17 03:03:37;;;;;;;0.75;0.75;;;10.10;92.10;;;;;;5962566;24;20653;-88
2021/05/17 03:06:07;;;;;;;0.80;0.73;;;10.10;92.20;;;;;;5963443;24;20204;-89
2021/05/17 03:08:41;;;;;;;0.82;0.80;;;10.10;91.70;;;;;;5961260;24;20303;-89
2021/05/17 03:11:09;;;;;;;1.67;1.02;;;10.00;92.10;;;;;;5961609;24;20187;-89
2021/05/17 03:13:36;;;;;;;1.00;0.80;;;10.00;92.60;;;;;;5962360;24;20218;-89
2021/05/17 03:16:03;;;;;;;0.60;0.60;;;10.00;91.50;;;;;;5963755;24;20243;-89
2021/05/17 03:18:31;;;;;;;0.73;0.73;;;10.00;91.30;;;;;;5961965;24;20208;-89
2021/05/17 03:20:57;;;;;;;2.45;1.00;;;10.10;91.10;;;;;;5964838;24;20172;-88
2021/05/17 03:23:26;;;;;;;1.15;0.80;;;10.20;91.30;;;;;;5963766;24;20211;-89
2021/05/17 03:25:53;;;;;;;1.98;1.00;;;10.10;91.30;;;;;;5964268;24;20200;-90
2021/05/17 03:28:19;;;;;;;1.60;0.70;;;10.20;91.20;;;;;;5964862;24;20211;-89
2021/05/17 03:30:45;;;;;;;0.98;0.70;;;10.10;91.20;;;;;;5964523;24;20262;-89
2021/05/17 03:33:12;;;;;;;0.85;0.85;;;10.20;91.20;;;;;;5963352;24;20208;-89
2021/05/17 03:35:38;;;;;;;1.17;0.80;;;10.20;91.40;;;;;;5964646;24;20202;-89
2021/05/17 03:38:05;;;;;;;1.05;0.70;;;10.20;91.30;;;;;;5965516;24;20263;-89
2021/05/17 03:40:33;;;;;;;0.52;0.52;;;10.20;91.10;;;;;;5965170;24;20750;-89
2021/05/17 03:42:59;;;;;;;1.67;0.70;;;10.20;91.10;;;;;;5963910;24;20214;-89
2021/05/17 03:45:25;;;;;;;0.63;0.60;;;10.20;90.30;;;;;;5965567;24;20581;-88
2021/05/17 03:47:52;;;;;;;0.90;0.55;;;10.20;90.60;;;;;;5964792;24;20283;-89
2021/05/17 03:50:18;;;;;;;1.92;0.70;;;10.30;90.40;;;;;;5964173;24;20195;-89
2021/05/17 03:52:45;;;;;;;1.38;0.77;;;10.30;90.40;;;;;;5962435;24;20598;-90
2021/05/17 03:55:12;;;;;;;2.88;0.90;;;10.20;90.30;;;;;;5963554;24;20180;-89
2021/05/17 03:57:39;;;;;;;0.80;0.80;;;10.20;90.30;;;;;;5963326;24;20226;-89
2021/05/17 04:00:09;;;;;;;1.23;0.80;;;10.30;90.40;;;;;;5963302;24;20180;-90
2021/05/17 04:02:35;;;;;;;0.70;0.70;;;10.20;90.80;;;;;;5962565;24;20211;-89
2021/05/17 04:05:12;;;;;;;2.70;0.82;;;10.10;90.80;;;;;;5964848;24;20207;-89
2021/05/17 04:08:05;;;;;;;0.80;0.80;;;10.20;90.30;;;;;;5963878;24;20314;-89
2021/05/17 04:13:20;;;;;;;1.02;0.90;;;10.30;90.40;;;;;;5962671;24;20776;-89
2021/05/17 04:15:48;;;;;;;1.98;0.80;;;10.20;90.30;;;;;;5964431;24;20172;-88
2021/05/17 04:18:16;;;;;;;1.25;0.70;;;10.30;90.40;;;;;;5963967;24;20211;-86
2021/05/17 04:20:43;;;;;;;0.85;0.85;;;10.20;90.40;;;;;;5964522;24;20172;-88
2021/05/17 04:23:09;;;;;;;0.95;0.93;;;10.20;90.80;;;;;;5966068;24;20285;-87
2021/05/17 04:25:36;;;;;;;1.35;0.77;;;10.30;90.90;;;;;;5968543;24;20203;-88
2021/05/17 04:28:02;;;;;;;1.23;0.80;;;10.30;90.40;;;;;;5966749;24;20739;-88
2021/05/17 04:30:31;;;;;;;1.30;1.17;;;10.20;91.10;;;;;;5965242;24;20180;-91
2021/05/17 04:32:58;;;;;;;3.90;1.10;;;10.30;90.70;;;;;;5965602;24;20219;-89
2021/05/17 04:35:25;;;;;;;2.75;1.20;;;10.30;90.40;;;;;;5966154;24;20247;-90
2021/05/17 04:37:51;;;;;;;2.13;1.10;;;10.30;90.40;;;;;;5965853;24;20739;-88
2021/05/17 04:40:18;;;;;;;2.28;0.93;;;10.30;90.00;;;;;;5967122;24;20180;-88
2021/05/17 04:42:44;;;;;;;2.22;1.05;;;10.30;90.20;;;;;;5965798;24;20224;-89
2021/05/17 04:45:11;;;;;;;5.80;1.40;;;10.30;90.30;;;;;;5965395;24;20199;-89
2021/05/17 04:47:39;;;;;;;3.05;1.23;;;10.20;90.30;;;;;;5965472;24;20226;-88
2021/05/17 04:50:07;;;;;;;4.07;1.00;;;10.30;89.40;;;;;;5966837;24;20707;-89
2021/05/17 04:52:34;;;;;;;1.92;1.17;;;10.30;90.00;;;;;;5965497;24;20214;-87
2021/05/17 04:55:00;;;;;;;1.63;1.02;;;10.30;89.20;;;;;;5964888;24;20186;-88
2021/05/17 04:57:27;;;;;;;2.92;0.98;;;10.30;88.90;;;;;;5965150;24;20208;-88
2021/05/17 04:59:53;;;;;;;2.33;1.10;;;10.40;87.80;;;;;;5965577;24;20184;-88
2021/05/17 05:02:20;;;;;;;3.40;1.17;;;10.40;87.80;;;;;;5963987;24;20215;-87
2021/05/17 05:04:47;;;;;;;2.63;1.27;;;10.50;86.60;;;;;;5965303;24;20203;-90
2021/05/17 05:07:14;;;;;;;5.95;1.15;;;10.40;87.40;;;;;;5965130;24;20212;-88
2021/05/17 05:09:41;;;;;;;4.55;1.30;;;10.50;87.40;;;;;;5965270;24;20180;-88
2021/05/17 05:12:08;;;;;;;5.57;1.40;;;10.40;86.50;;;;;;5964630;24;20207;-89
2021/05/17 05:14:34;;;;;;;5.30;1.00;;;10.50;84.80;;;;;;5964251;24;20206;-89
2021/05/17 05:17:00;;;;;;;4.95;1.50;;;10.50;85.80;;;;;;5963816;24;20214;-88
2021/05/17 05:19:27;;;;;;;4.10;1.38;;;10.40;86.20;;;;;;5965547;24;20227;-88
2021/05/17 05:21:54;;;;;;;3.17;1.30;;;10.50;84.80;;;;;;5963047;24;20207;-87
2021/05/17 05:24:21;;;;;;;4.68;1.42;;;10.40;86.20;;;;;;5966033;24;20184;-89
2021/05/17 05:26:58;;;;;;;3.20;1.60;;;10.40;86.60;;;;;;5965770;24;20175;-90
2021/05/17 05:29:34;;;;;;;2.75;1.20;;;10.50;86.10;;;;;;5966991;24;20561;-88
2021/05/17 05:32:07;;;;;;;7.47;1.60;;;10.60;84.10;;;;;;5962773;24;20211;-89
2021/05/17 05:34:39;;;;;;;6.05;2.10;;;10.60;83.90;;;;;;5965317;24;20164;-87
2021/05/17 05:40:51;;;;;;;5.68;1.50;;;11.10;80.70;;;;;;5967297;24;20148;-87
2021/05/17 05:43:37;;;;;;;6.72;1.60;;;11.20;79.50;;;;;;5967047;24;20227;-87
2021/05/17 05:46:04;;;;;;;5.45;1.48;;;11.20;78.70;;;;;;5968356;24;20207;-87
2021/05/17 05:48:31;;;;;;;5.65;1.45;;;11.30;78.80;;;;;;5944665;24;20255;-89
2021/05/17 05:50:57;;;;;;;4.93;1.23;;;11.60;77.90;;;;;;5967590;24;20180;-92
2021/05/17 05:53:23;;;;;;;4.22;1.58;;;12.00;75.10;;;;;;5962564;24;20222;-91
2021/05/17 05:58:43;;;;;;;5.63;1.60;;;12.40;70.70;;;;;;5960394;24;20236;-91
2021/05/17 06:01:09;;;;;;;7.63;1.63;;;12.50;69.50;;;;;;5966658;24;20176;-91
2021/05/17 06:03:36;;;;;;;2.80;1.50;;;12.60;67.10;;;;;;5939612;24;20524;-90
2021/05/17 06:06:03;;;;;;;3.45;1.40;;;12.50;69.00;;;;;;5964295;24;20283;-90
2021/05/17 06:08:30;;;;;;;4.70;1.23;;;12.40;68.80;;;;;;5966675;24;20486;-92
2021/05/17 06:23:28;;;;;;;3.03;1.30;;;11.80;76.10;;;;;;5963480;24;20218;-92
2021/05/17 06:34:25;;;;;;;3.10;1.17;;;11.90;76.60;;;;;;5763130;24;20179;-90
2021/05/17 06:36:51;;;;;;;3.22;1.20;;;12.20;75.30;;;;;;5911253;23;20245;-90
2021/05/17 06:39:35;;;;;;;7.82;1.70;;;12.70;73.10;;;;;;5995951;24;20219;-90
2021/05/17 06:45:31;;;;;;;2.88;1.30;;;13.70;62.70;;;;;;5996167;24;20627;-87
2021/05/17 06:47:58;;;;;;;4.55;1.40;;;14.00;62.30;;;;;;5992905;23;20207;-90
2021/05/17 06:50:25;;;;;;;2.80;1.10;;;14.20;59.90;;;;;;5991994;24;20189;-87
2021/05/17 06:52:52;;;;;;;3.15;1.63;;;14.30;58.90;;;;;;5994896;24;20209;-87
2021/05/17 06:55:21;;;;;;;4.75;1.20;;;14.30;59.10;;;;;;5994093;24;20255;-87
2021/05/17 07:00:34;;;;;;;1.98;0.90;;;14.50;58.40;;;;;;5991184;24;20217;-89
2021/05/17 07:03:02;;;;;;;5.30;1.38;;;14.50;57.40;;;;;;5990300;24;20207;-88
2021/05/17 07:05:29;;;;;;;6.07;1.77;;;14.50;59.10;;;;;;5991535;24;20250;-88
2021/05/17 07:13:27;;;;;;;4.10;1.10;;;14.60;56.80;;;;;;5987078;24;20237;-87
2021/05/17 07:15:54;;;;;;;3.30;1.20;;;14.40;54.40;;;;;;5962095;24;20195;-87
2021/05/17 07:18:20;;;;;;;4.38;1.25;;;14.50;54.90;;;;;;5961554;24;20217;-87
2021/05/17 07:23:38;;;;;;;6.32;1.40;;;14.40;53.60;;;;;;5961980;24;20207;-88
2021/05/17 07:26:07;;;;;;;2.95;1.30;;;14.20;57.20;;;;;;5964967;24;20195;-89
2021/05/17 07:28:40;;;;;;;3.35;1.30;;;14.20;58.80;;;;;;5965456;24;20204;-88
2021/05/17 07:31:09;;;;;;;3.70;1.20;;;14.00;58.00;;;;;;5962802;24;20240;-89
2021/05/17 07:33:37;;;;;;;2.58;1.33;;;14.00;58.90;;;;;;5961445;24;20231;-88
2021/05/17 07:36:04;;;;;;;2.65;1.15;;;14.20;59.90;;;;;;5964746;24;20183;-89
2021/05/17 07:38:31;;;;;;;4.65;1.38;;;14.20;58.20;;;;;;5965247;24;20287;-87
2021/05/17 07:41:25;;;;;;;3.58;1.17;;;14.20;54.50;;;;;;5966420;24;20179;-88
2021/05/17 07:43:51;;;;;;;6.05;1.35;;;14.10;58.70;;;;;;5967746;24;20664;-87
2021/05/17 07:46:19;;;;;;;4.80;1.40;;;14.00;59.10;;;;;;5966082;24;20200;-87
2021/05/17 07:49:09;;;;;;;3.75;1.30;;;14.20;59.30;;;;;;5965354;24;20211;-87
2021/05/17 07:51:36;;;;;;;3.05;1.38;;;14.30;56.50;;;;;;5962257;24;20247;-86
2021/05/17 07:54:03;;;;;;;4.20;1.35;;;14.40;55.00;;;;;;5961710;24;20620;-87
2021/05/17 07:56:30;;;;;;;3.60;1.10;;;14.60;52.90;;;;;;5961651;24;20248;-88
2021/05/17 07:58:56;;;;;;;2.70;0.80;;;14.90;51.30;;;;;;5964283;24;20656;-87
2021/05/17 08:01:24;;;;;;;2.15;0.98;;;14.80;51.30;;;;;;5965784;24;20259;-93
2021/05/17 08:03:50;;;;;;;3.33;1.30;;;14.90;51.30;;;;;;5964622;24;20240;-88
2021/05/17 08:06:17;;;;;;;5.70;1.40;;;14.90;52.80;;;;;;5964458;24;20258;-88
2021/05/17 08:08:43;;;;;;;2.72;1.10;;;14.90;51.30;;;;;;5964140;24;20207;-87
2021/05/17 08:11:10;;;;;;;4.65;1.35;;;15.00;51.40;;;;;;5938917;24;20188;-87
2021/05/17 08:13:38;;;;;;;3.92;1.40;;;15.20;51.50;;;;;;5960211;24;20235;-87
2021/05/17 08:16:05;;;;;;;5.38;1.60;;;15.60;51.90;;;;;;5961389;24;20192;-91
2021/05/17 08:18:34;;;;;;;7.65;1.35;;;16.10;49.90;;;;;;5960103;24;20226;-87
2021/05/17 08:21:00;;;;;;;4.95;1.45;;;15.90;49.60;;;;;;5960511;24;20180;-91
2021/05/17 08:23:27;;;;;;;6.25;1.30;;;15.50;50.10;;;;;;5959458;24;20731;-86
2021/05/17 08:25:55;;;;;;;3.28;1.20;;;14.90;51.30;;;;;;5962337;24;20263;-86
2021/05/17 08:28:22;;;;;;;1.33;1.10;;;14.50;53.80;;;;;;5964122;24;20208;-91
2021/05/17 08:30:57;;;;;;;2.20;0.93;;;14.20;56.20;;;;;;5968723;24;20235;-86
2021/05/17 08:33:24;;;;;;;2.80;0.65;;;13.90;57.40;;;;;;5968604;24;20203;-86
2021/05/17 08:35:52;;;;;;;1.98;0.90;;;13.80;58.20;;;;;;5968126;24;20184;-87
2021/05/17 08:38:19;;;;;;;2.47;1.00;;;13.90;54.50;;;;;;5967359;24;20223;-86
2021/05/17 08:40:46;;;;;;;1.83;1.15;;;14.20;56.30;;;;;;5963549;24;20180;-88
2021/05/17 08:43:13;;;;;;;1.73;0.80;;;15.00;51.40;;;;;;5959164;24;20275;-87
2021/05/17 08:45:39;;;;;;;1.92;0.85;;;16.30;47.70;;;;;;5962754;24;20200;-87
2021/05/17 08:48:06;;;;;;;2.10;0.93;;;17.10;41.20;;;;;;5961609;24;20678;-87
2021/05/17 08:50:34;;;;;;;2.95;0.80;;;18.00;38.10;;;;;;5965194;24;20164;-85
2021/05/17 08:53:01;;;;;;;3.83;0.73;;;18.90;36.60;;;;;;5965197;24;20207;-85
2021/05/17 08:55:27;;;;;;;1.25;0.90;;;18.30;35.70;;;;;;5963378;24;20238;-85
2021/05/17 08:57:57;;;;;;;1.08;0.80;;;17.50;37.90;;;;;;5963316;24;20823;-85
2021/05/17 09:00:24;;;;;;;1.65;0.90;;;16.50;39.60;;;;;;5965912;24;20243;-87
2021/05/17 09:02:52;;;;;;;2.08;0.80;;;16.00;41.00;;;;;;5961602;24;20260;-87
2021/05/17 09:05:19;;;;;;;1.60;1.00;;;16.30;42.10;;;;;;5961310;24;20507;-86
2021/05/17 09:07:47;;;;;;;1.40;1.10;;;16.80;39.90;;;;;;5959892;24;20208;-88
2021/05/17 09:10:19;;;;;;;0.80;0.80;;;18.20;40.30;;;;;;5962258;24;20555;-87
2021/05/17 09:13:00;;;;;;;2.58;0.85;;;19.00;34.40;;;;;;5960344;24;20212;-86
2021/05/17 09:15:31;;;;;;;1.50;0.80;;;18.60;34.00;;;;;;5963849;24;20625;-85
2021/05/17 09:17:58;;;;;;;1.23;1.00;;;16.90;36.90;;;;;;5960525;24;20214;-87
2021/05/17 09:20:33;;;;;;;1.38;1.00;;;16.50;40.60;;;;;;5960447;24;20180;-88
2021/05/17 09:23:07;;;;;;;1.48;1.00;;;16.30;40.10;;;;;;5960135;24;20210;-88
2021/05/17 09:25:35;;;;;;;4.75;1.08;;;16.10;42.30;;;;;;5961154;24;20199;-89
2021/05/17 09:28:03;;;;;;;3.97;0.93;;;16.00;43.10;;;;;;5962642;24;20264;-88
2021/05/17 09:33:45;;;;;;;3.40;0.70;;;17.00;40.70;;;;;;5970421;24;20239;-87
2021/05/17 09:36:26;;;;;;;4.55;0.90;;;17.20;39.20;;;;;;5969995;24;20174;-87
2021/05/17 09:38:57;;;;;;;4.07;0.80;;;17.50;38.00;;;;;;5970418;24;20190;-87
2021/05/17 09:44:46;;;;;;;1.52;0.82;;;17.10;39.90;;;;;;5967954;24;20258;-87
2021/05/17 09:47:14;;;;;;;3.17;1.02;;;18.70;35.40;;;;;;5964290;24;20234;-87
2021/05/17 09:49:44;;;;;;;1.00;0.70;;;20.10;32.20;;;;;;5964278;24;20205;-85
2021/05/17 09:52:14;;;;;;;4.30;0.88;;;22.00;28.90;;;;;;5963641;24;20284;-87
2021/05/17 09:55:01;;;;;;;2.17;1.00;;;21.90;27.30;;;;;;5963388;24;20640;-87
2021/05/17 09:57:33;;;;;;;3.70;1.08;;;21.60;26.90;;;;;;5962329;24;20216;-84
2021/05/17 10:00:07;;;;;;;2.25;1.10;;;22.10;26.20;;;;;;5965825;24;20208;-85
2021/05/17 10:02:39;;;;;;;4.38;1.10;;;22.40;26.30;;;;;;5966478;24;20278;-83
2021/05/17 10:05:20;;;;;;;1.55;0.95;;;21.70;28.50;;;;;;5961606;24;20192;-86
2021/05/17 10:07:48;;;;;;;3.03;1.00;;;20.60;30.90;;;;;;5962932;24;20212;-86
2021/05/17 10:10:15;;;;;;;1.33;1.00;;;19.60;31.70;;;;;;5962752;24;20182;-85
2021/05/17 10:12:42;;;;;;;2.83;1.10;;;19.50;31.60;;;;;;5961458;24;20843;-85
2021/05/17 10:15:11;;;;;;;1.65;0.90;;;19.40;32.90;;;;;;5961824;24;20537;-91
2021/05/17 10:17:38;;;;;;;0.80;0.80;;;19.00;31.50;;;;;;5962799;24;20216;-86
2021/05/17 10:20:07;;;;;;;1.10;0.77;;;18.60;34.40;;;;;;5937773;24;20240;-87
2021/05/17 10:22:34;;;;;;;1.83;0.90;;;17.90;34.80;;;;;;5961066;24;20212;-86
2021/05/17 10:25:04;;;;;;;3.33;1.15;;;17.80;36.40;;;;;;5960302;24;20183;-87
2021/05/17 10:27:31;;;;;;;3.42;1.00;;;18.60;38.60;;;;;;5961427;24;20532;-86
2021/05/17 10:30:04;;;;;;;2.75;1.17;;;19.30;33.60;;;;;;5959889;24;20182;-85
2021/05/17 10:32:44;;;;;;;3.67;1.63;;;19.80;31.90;;;;;;5960643;24;20237;-89
2021/05/17 10:35:14;;;;;;;1.98;1.20;;;19.50;31.60;;;;;;5961634;24;20176;-85
2021/05/17 10:37:44;;;;;;;3.17;1.08;;;19.50;31.60;;;;;;5959497;24;20211;-85
2021/05/17 10:40:29;;;;;;;3.20;1.20;;;19.90;32.00;;;;;;5962377;24;20168;-89
2021/05/17 10:43:07;;;;;;;3.10;1.15;;;20.60;32.50;;;;;;5960401;24;20208;-85
2021/05/17 10:48:28;;;;;;;1.80;1.00;;;22.00;27.30;;;;;;5960073;24;20218;-82
2021/05/17 10:51:20;;;;;;;2.35;1.00;;;22.40;27.40;;;;;;5958062;24;20182;-85
2021/05/17 10:53:50;;;;;;;1.88;1.00;;;21.80;26.60;;;;;;5934821;24;20681;-89
2021/05/17 10:56:19;;;;;;;1.75;1.00;;;20.50;29.50;;;;;;5960543;24;20172;-84
2021/05/17 11:02:11;;;;;;;1.30;0.98;;;18.90;33.20;;;;;;5962247;24;20239;-85
2021/05/17 11:04:39;;;;;;;2.47;1.02;;;18.40;33.50;;;;;;5964354;24;20167;-86
2021/05/17 11:07:23;;;;;;;2.80;1.00;;;17.80;35.20;;;;;;5960046;24;20214;-87
2021/05/17 11:10:15;;;;;;;2.95;1.02;;;17.70;35.90;;;;;;5961484;24;20172;-86
2021/05/17 11:13:00;;;;;;;1.83;1.10;;;17.50;36.20;;;;;;5960881;24;20228;-87
2021/05/17 11:15:42;;;;;;;4.97;0.95;;;17.10;37.40;;;;;;5963056;24;20187;-85
2021/05/17 11:18:30;;;;;;;3.63;1.25;;;17.10;35.80;;;;;;5937717;24;20212;-88
2021/05/17 11:20:59;;;;;;;2.65;1.00;;;16.90;37.40;;;;;;5962056;24;20176;-86
2021/05/17 11:24:05;;;;;;;0.93;0.70;;;17.00;37.10;;;;;;5960876;24;20533;-88
2021/05/17 11:26:34;;;;;;;2.17;1.00;;;16.90;37.40;;;;;;5960975;24;20276;-87
2021/05/17 11:29:08;;;;;;;0.82;0.52;;;16.80;38.60;;;;;;5959378;24;20184;-89
2021/05/17 11:31:42;;;;;;;4.25;1.05;;;16.80;36.60;;;;;;5957552;24;20175;-91
2021/05/17 11:34:16;;;;;;;1.27;0.85;;;16.70;38.20;;;;;;5958796;24;20613;-89
2021/05/17 11:36:46;;;;;;;2.60;1.00;;;16.30;38.70;;;;;;5958821;24;20172;-88
2021/05/17 11:39:16;;;;;;;2.72;1.00;;;16.10;40.10;;;;;;5960829;24;20168;-88
2021/05/17 11:41:45;;;;;;;3.45;1.10;;;16.40;38.50;;;;;;5958774;24;20180;-93
2021/05/17 11:44:14;;;;;;;0.98;0.82;;;16.50;38.10;;;;;;5961266;24;20183;-92
2021/05/17 11:46:44;;;;;;;2.67;1.27;;;16.60;37.10;;;;;;5957502;24;20587;-90
2021/05/17 11:49:16;;;;;;;2.92;1.02;;;16.40;37.70;;;;;;5959470;24;20165;-89
2021/05/17 11:51:46;;;;;;;2.10;0.85;;;16.40;36.40;;;;;;5958822;24;20257;-89
2021/05/17 11:54:13;;;;;;;2.05;0.98;;;16.20;38.00;;;;;;5958861;24;20251;-89
2021/05/17 11:56:41;;;;;;;2.40;1.15;;;16.00;40.10;;;;;;5960192;24;20187;-90
2021/05/17 11:59:10;;;;;;;3.42;1.13;;;15.90;39.00;;;;;;5962403;24;20187;-90
2021/05/17 12:01:37;;;;;;;1.00;0.88;;;16.10;39.30;;;;;;5963172;24;20180;-86
2021/05/17 12:04:17;;;;;;;1.55;0.73;;;16.30;38.00;;;;;;5965404;24;20206;-89
2021/05/17 12:06:45;;;;;;;2.00;1.25;;;16.40;38.90;;;;;;5961081;24;20251;-91
2021/05/17 12:09:12;;;;;;;5.32;1.27;;;16.90;38.70;;;;;;5957308;24;20181;-91
2021/05/17 12:11:49;;;;;;;1.25;1.02;;;17.20;36.50;;;;;;5956492;24;20184;-91
2021/05/17 12:14:15;;;;;;;3.47;1.17;;;17.00;37.70;;;;;;5954812;24;20200;-90
2021/05/17 12:16:42;;;;;;;4.13;1.40;;;17.00;37.20;;;;;;5928241;24;20488;-90
2021/05/17 12:19:08;;;;;;;3.35;1.00;;;17.10;38.40;;;;;;5907596;24;20693;-90
2021/05/17 12:21:37;;;;;;;2.58;1.05;;;17.20;38.50;;;;;;5932439;24;20191;-89
2021/05/17 12:24:09;;;;;;;1.92;1.00;;;17.20;37.10;;;;;;5931511;24;20264;-89
2021/05/17 12:26:52;;;;;;;2.42;0.88;;;17.00;37.10;;;;;;5932588;24;20189;-89
2021/05/17 12:29:20;;;;;;;1.05;0.80;;;17.20;39.10;;;;;;5932981;24;20211;-88
2021/05/17 12:31:47;;;;;;;2.33;0.80;;;17.40;38.80;;;;;;5932446;24;20180;-89
2021/05/17 12:34:13;;;;;;;1.92;0.77;;;17.40;37.60;;;;;;5933434;24;20184;-89
2021/05/17 12:36:42;;;;;;;1.90;0.98;;;17.40;37.80;;;;;;5934674;24;20209;-90
2021/05/17 12:39:16;;;;;;;4.97;1.13;;;17.50;38.10;;;;;;5930758;24;20192;-90
2021/05/17 12:41:43;;;;;;;3.45;1.00;;;17.30;35.90;;;;;;5905114;24;20185;-89
2021/05/17 12:44:30;;;;;;;1.45;0.73;;;17.10;35.80;;;;;;5932130;24;20618;-88
2021/05/17 12:47:04;;;;;;;3.05;1.05;;;16.80;36.30;;;;;;5931711;24;20212;-91
2021/05/17 12:49:52;;;;;;;1.98;1.00;;;16.60;38.20;;;;;;5907069;24;20184;-90
2021/05/17 12:52:32;;;;;;;1.50;1.00;;;16.60;38.70;;;;;;5930656;24;20249;-89
2021/05/17 12:55:19;;;;;;;1.10;1.00;;;16.60;38.00;;;;;;5909169;24;20195;-88
2021/05/17 12:57:55;;;;;;;3.47;0.70;;;16.90;35.20;;;;;;5933189;24;20216;-87
2021/05/17 13:00:47;;;;;;;2.13;1.02;;;17.10;36.60;;;;;;5935298;24;20180;-88
2021/05/17 13:03:16;;;;;;;1.02;0.90;;;17.10;36.50;;;;;;5931918;24;20214;-87
2021/05/17 13:06:00;;;;;;;1.60;0.90;;;17.10;36.70;;;;;;5934403;24;20205;-89
2021/05/17 13:08:54;;;;;;;1.63;0.82;;;17.00;37.10;;;;;;5933927;24;20265;-91
2021/05/17 13:11:26;;;;;;;4.65;1.23;;;16.70;36.70;;;;;;5932556;24;20173;-88
2021/05/17 13:13:57;;;;;;;4.43;1.00;;;16.40;36.10;;;;;;5933271;24;20606;-88
2021/05/17 13:16:30;;;;;;;5.40;1.23;;;16.50;38.10;;;;;;5955712;24;20195;-90
2021/05/17 13:19:11;;;;;;;2.05;1.27;;;16.70;35.70;;;;;;5947726;24;20233;-88
2021/05/17 13:22:09;;;;;;;1.75;1.20;;;16.80;34.50;;;;;;5954635;24;20211;-94
2021/05/17 13:30:36;;;;;;;1.88;1.20;;;16.60;36.40;;;;;;5868396;24;20633;-91
2021/05/17 13:33:03;;;;;;;3.97;1.27;;;16.90;38.80;;;;;;5933534;24;20222;-90
2021/05/17 13:35:30;;;;;;;3.63;1.40;;;17.20;37.40;;;;;;5955474;24;20190;-89
2021/05/17 13:37:56;;;;;;;5.10;1.20;;;17.00;37.00;;;;;;5932291;24;20211;-93
2021/05/17 13:40:47;;;;;;;3.03;0.70;;;16.10;38.80;;;;;;5967255;24;20488;-91
2021/05/17 13:43:14;;;;;;;1.77;0.88;;;15.40;42.40;;;;;;5970286;24;20228;-91
2021/05/17 13:46:17;;;;;;;2.33;0.80;;;15.10;44.70;;;;;;5948592;24;20196;-90
2021/05/17 13:48:48;;;;;;;1.35;0.63;;;15.10;46.90;;;;;;5969942;24;20211;-90
2021/05/17 14:01:25;;;;;;;0.93;0.40;;;15.60;43.80;;;;;;5964128;24;20537;-87
2021/05/17 14:04:27;;;;;;;2.25;0.50;;;15.60;40.90;;;;;;5965888;24;20189;-87
2021/05/17 14:06:54;;;;;;;0.52;0.52;;;15.40;41.40;;;;;;5937041;24;20219;-88
2021/05/17 14:09:21;;;;;;;1.05;0.63;;;15.20;43.00;;;;;;5960710;24;20656;-87
2021/05/17 14:11:47;;;;;;;1.30;0.90;;;14.90;43.90;;;;;;5959578;24;20188;-87
2021/05/17 14:14:14;;;;;;;0.60;0.57;;;14.70;45.70;;;;;;5966535;24;20227;-89
2021/05/17 14:16:42;;;;;;;3.42;0.90;;;14.70;47.10;;;;;;5967785;24;20235;-87